createdAt,value
2019-02-07T00:02:10.327Z,99.20
2019-02-07T00:04:39.538Z,99.30
2019-02-07T00:07:09.372Z,99.20
2019-02-07T00:09:38.613Z,99.00
2019-02-07T00:12:08.592Z,99.00
2019-02-07T00:14:56.991Z,99.10
2019-02-07T00:17:26.512Z,99.00
2019-02-07T00:19:56.183Z,98.70
2019-02-07T00:22:25.851Z,98.70
2019-02-07T00:24:55.144Z,98.50
2019-02-07T00:27:24.523Z,98.60
2019-02-07T00:29:54.160Z,98.40
2019-02-07T00:32:23.441Z,98.80
2019-02-07T00:34:53.339Z,98.80
2019-02-07T00:37:22.935Z,98.60
2019-02-07T00:39:53.075Z,98.70
2019-02-07T00:42:22.348Z,98.60
2019-02-07T00:44:52.281Z,98.90
2019-02-07T00:47:22.550Z,99.00
2019-02-07T00:49:51.904Z,98.90
2019-02-07T00:52:21.072Z,98.70
2019-02-07T00:54:50.632Z,98.70
2019-02-07T00:57:19.993Z,98.70
2019-02-07T00:59:49.217Z,98.80
2019-02-07T01:02:18.783Z,98.70
2019-02-07T01:04:48.279Z,98.80
2019-02-07T01:07:17.575Z,98.80
2019-02-07T01:09:46.787Z,98.60
2019-02-07T01:12:16.057Z,98.60
2019-02-07T01:14:45.653Z,98.40
2019-02-07T01:17:14.999Z,98.10
2019-02-07T01:19:44.248Z,98.10
2019-02-07T01:22:13.561Z,97.80
2019-02-07T01:24:43.214Z,97.60
2019-02-07T01:27:12.505Z,97.80
2019-02-07T01:29:42.541Z,97.80
2019-02-07T01:32:12.099Z,97.70
2019-02-07T01:34:41.331Z,97.50
2019-02-07T01:37:10.775Z,97.30
2019-02-07T01:39:40.630Z,97.20
2019-02-07T01:42:10.120Z,97.30
2019-02-07T01:44:39.664Z,97.20
2019-02-07T01:47:09.099Z,97.20
2019-02-07T01:49:38.365Z,97.10
2019-02-07T01:52:07.699Z,97.00
2019-02-07T01:54:37.030Z,97.00
2019-02-07T01:57:06.333Z,96.90
2019-02-07T01:59:35.559Z,97.20
2019-02-07T02:02:05.531Z,97.30
2019-02-07T02:04:35.234Z,97.30
2019-02-07T02:07:04.588Z,97.40
2019-02-07T02:09:33.870Z,97.20
2019-02-07T02:12:03.778Z,97.40
2019-02-07T02:14:33.082Z,97.40
2019-02-07T02:17:02.373Z,97.40
2019-02-07T02:19:31.720Z,97.30
2019-02-07T02:22:01.446Z,96.90
2019-02-07T02:24:30.621Z,96.90
2019-02-07T02:27:00.276Z,96.90
2019-02-07T02:29:29.652Z,97.00
2019-02-07T02:31:59.267Z,97.40
2019-02-07T02:34:28.429Z,97.60
2019-02-07T02:36:57.751Z,97.70
2019-02-07T02:39:27.432Z,97.30
2019-02-07T02:41:56.758Z,97.00
2019-02-07T02:44:26.187Z,96.50
2019-02-07T02:46:55.675Z,96.80
2019-02-07T02:49:25.208Z,96.50
2019-02-07T02:51:54.371Z,96.40
2019-02-07T02:54:42.844Z,96.30
2019-02-07T02:57:12.589Z,96.40
2019-02-07T02:59:42.043Z,96.50
2019-02-07T03:02:37.337Z,96.90
2019-02-07T03:05:43.709Z,96.90
2019-02-07T03:08:30.420Z,96.80
2019-02-07T03:11:17.596Z,96.70
2019-02-07T03:14:04.807Z,96.70
2019-02-07T03:16:51.758Z,96.70
2019-02-07T03:19:55.472Z,96.40
2019-02-07T03:22:44.356Z,96.40
2019-02-07T03:25:49.994Z,96.40
2019-02-07T03:28:41.528Z,96.40
2019-02-07T03:31:30.712Z,96.40
2019-02-07T03:34:17.464Z,96.50
2019-02-07T03:37:05.719Z,96.50
2019-02-07T03:39:54.391Z,96.70
2019-02-07T03:42:37.266Z,96.40
2019-02-07T03:45:25.839Z,96.50
2019-02-07T03:48:13.256Z,96.80
2019-02-07T03:51:20.186Z,97.00
2019-02-07T03:54:11.037Z,97.60
2019-02-07T03:56:52.131Z,97.70
2019-02-07T03:59:46.684Z,97.90
2019-02-07T04:02:41.105Z,97.80
2019-02-07T04:05:28.524Z,97.70
2019-02-07T04:08:25.956Z,97.60
2019-02-07T04:11:32.910Z,98.10
2019-02-07T04:14:14.659Z,98.30
2019-02-07T04:17:03.510Z,98.10
2019-02-07T04:19:55.203Z,97.90
2019-02-07T04:23:01.568Z,97.80
2019-02-07T04:25:44.699Z,97.70
2019-02-07T04:28:42.163Z,97.00
2019-02-07T04:31:30.664Z,96.40
2019-02-07T04:34:18.937Z,96.20
2019-02-07T04:37:01.579Z,95.80
2019-02-07T04:39:53.436Z,95.90
2019-02-07T04:42:31.345Z,95.70
2019-02-07T04:45:23.000Z,95.40
2019-02-07T04:48:10.269Z,95.60
2019-02-07T04:51:03.269Z,95.30
2019-02-07T04:53:55.010Z,95.20
2019-02-07T04:56:49.259Z,94.90
2019-02-07T04:59:26.006Z,94.90
2019-02-07T05:02:11.721Z,95.00
2019-02-07T05:04:53.322Z,95.20
2019-02-07T05:07:35.601Z,95.40
2019-02-07T05:10:28.379Z,95.70
2019-02-07T05:13:15.787Z,95.80
2019-02-07T05:16:03.131Z,95.70
2019-02-07T05:18:47.828Z,95.90
2019-02-07T05:21:56.166Z,96.00
2019-02-07T05:24:34.658Z,96.40
2019-02-07T05:27:34.993Z,96.00
2019-02-07T05:30:19.947Z,96.40
2019-02-07T05:33:06.557Z,96.50
2019-02-07T05:35:53.927Z,97.00
2019-02-07T05:38:42.170Z,97.30
2019-02-07T05:41:30.261Z,97.50
2019-02-07T05:44:17.441Z,97.70
2019-02-07T05:47:04.351Z,97.80
2019-02-07T05:49:52.620Z,97.70
2019-02-07T05:52:46.802Z,97.50
2019-02-07T05:55:34.109Z,97.70
2019-02-07T05:58:21.726Z,97.70
2019-02-07T06:01:16.125Z,97.80
2019-02-07T06:04:04.377Z,98.00
2019-02-07T06:06:42.293Z,97.70
2019-02-07T06:09:49.148Z,97.70
2019-02-07T06:12:36.124Z,98.00
2019-02-07T06:15:25.181Z,98.10
2019-02-07T06:18:24.271Z,98.10
2019-02-07T06:21:12.791Z,97.40
2019-02-07T06:23:59.658Z,97.20
2019-02-07T06:26:46.458Z,97.30
2019-02-07T06:29:40.463Z,97.30
2019-02-07T06:32:21.971Z,97.20
2019-02-07T06:35:08.375Z,97.10
2019-02-07T06:38:04.113Z,97.20
2019-02-07T06:40:55.103Z,97.50
2019-02-07T06:43:46.482Z,97.40
2019-02-07T06:46:40.696Z,97.60
2019-02-07T06:49:38.092Z,97.20
2019-02-07T06:52:28.834Z,96.40
2019-02-07T06:55:12.551Z,96.50
2019-02-07T06:58:01.008Z,95.60
2019-02-07T07:00:42.735Z,95.80
2019-02-07T07:03:29.779Z,95.70
2019-02-07T07:06:27.388Z,95.60
2019-02-07T07:09:14.205Z,95.70
2019-02-07T07:12:01.143Z,95.50
2019-02-07T07:14:58.127Z,95.90
2019-02-07T07:17:45.922Z,95.50
2019-02-07T07:20:43.493Z,95.30
2019-02-07T07:23:33.452Z,95.30
2019-02-07T07:26:21.702Z,94.70
2019-02-07T07:29:08.511Z,94.30
2019-02-07T07:31:55.982Z,94.30
2019-02-07T07:34:44.183Z,94.50
2019-02-07T07:37:32.749Z,93.90
2019-02-07T07:40:13.122Z,93.90
2019-02-07T07:43:15.134Z,93.90
2019-02-07T07:46:01.956Z,93.10
2019-02-07T07:48:49.432Z,93.40
2019-02-07T07:51:36.433Z,93.70
2019-02-07T07:54:25.268Z,93.90
2019-02-07T07:57:19.516Z,94.50
2019-02-07T08:00:07.784Z,94.40
2019-02-07T08:02:54.715Z,94.70
2019-02-07T08:05:47.430Z,94.90
2019-02-07T08:08:35.995Z,94.70
2019-02-07T08:11:23.896Z,95.00
2019-02-07T08:14:12.536Z,94.20
2019-02-07T08:16:59.683Z,94.20
2019-02-07T08:19:46.899Z,94.60
2019-02-07T08:22:32.976Z,95.60
2019-02-07T08:25:33.225Z,96.60
2019-02-07T08:28:29.936Z,96.80
2019-02-07T08:31:24.429Z,97.20
2019-02-07T08:34:12.781Z,97.30
2019-02-07T08:37:16.265Z,97.30
2019-02-07T08:40:04.503Z,97.60
2019-02-07T08:42:54.084Z,97.30
2019-02-07T08:45:41.547Z,97.10
2019-02-07T08:48:41.956Z,97.30
2019-02-07T08:51:30.160Z,97.90
2019-02-07T08:54:24.158Z,98.50
2019-02-07T08:57:12.464Z,98.00
2019-02-07T09:00:03.851Z,98.20
2019-02-07T09:02:58.322Z,97.80
2019-02-07T09:05:49.892Z,98.50
2019-02-07T09:08:43.904Z,98.40
2019-02-07T09:11:30.598Z,98.30
2019-02-07T09:14:28.155Z,97.90
2019-02-07T09:17:28.764Z,97.90
2019-02-07T09:20:08.462Z,98.10
2019-02-07T09:22:55.129Z,98.40
2019-02-07T09:25:52.452Z,97.40
2019-02-07T09:28:40.670Z,97.50
2019-02-07T09:31:44.308Z,96.80
2019-02-07T09:34:31.553Z,96.80
2019-02-07T09:37:22.667Z,96.30
2019-02-07T09:40:01.916Z,96.40
2019-02-07T09:42:49.088Z,96.70
2019-02-07T09:45:38.095Z,98.00
2019-02-07T09:48:24.930Z,99.10
2019-02-07T09:51:13.191Z,99.40
2019-02-07T09:54:00.265Z,98.50
2019-02-07T09:56:51.448Z,97.90
2019-02-07T09:59:39.891Z,97.90
2019-02-07T10:02:27.060Z,97.50
2019-02-07T10:05:18.344Z,97.90
2019-02-07T10:08:09.387Z,99.20
2019-02-07T10:10:45.126Z,99.80
2019-02-07T10:13:23.007Z,99.80
2019-02-07T10:16:14.352Z,99.80
2019-02-07T10:18:58.270Z,99.80
2019-02-07T10:21:56.551Z,99.80
2019-02-07T10:24:40.764Z,99.80
2019-02-07T10:27:40.951Z,99.80
2019-02-07T10:30:42.351Z,99.80
2019-02-07T10:33:30.590Z,99.80
2019-02-07T10:36:21.832Z,99.80
2019-02-07T10:39:19.018Z,99.80
2019-02-07T10:42:01.455Z,99.80
2019-02-07T10:44:53.795Z,99.80
2019-02-07T10:47:43.329Z,99.80
2019-02-07T10:50:29.924Z,99.80
2019-02-07T10:53:26.990Z,99.80
2019-02-07T10:56:27.536Z,99.80
2019-02-07T10:59:21.180Z,99.80
2019-02-07T11:02:15.129Z,99.80
2019-02-07T11:05:04.842Z,99.80
2019-02-07T11:07:56.667Z,99.80
2019-02-07T11:10:50.724Z,99.80
2019-02-07T11:13:37.859Z,99.80
2019-02-07T11:16:38.264Z,99.80
2019-02-07T11:19:25.371Z,99.80
2019-02-07T11:22:16.508Z,99.80
2019-02-07T11:25:03.555Z,99.80
2019-02-07T11:27:48.951Z,99.80
2019-02-07T11:30:43.862Z,99.80
2019-02-07T11:33:31.093Z,99.80
2019-02-07T11:36:13.843Z,99.80
2019-02-07T11:39:01.022Z,99.80
2019-02-07T11:41:46.133Z,99.80
2019-02-07T11:44:38.310Z,99.80
2019-02-07T11:47:27.274Z,99.80
2019-02-07T11:50:09.309Z,99.80
2019-02-07T11:52:47.774Z,99.80
2019-02-07T11:55:34.735Z,99.80
2019-02-07T11:58:27.551Z,99.80
2019-02-07T12:01:14.983Z,99.80
2019-02-07T12:04:20.521Z,99.80
2019-02-07T12:07:06.198Z,99.80
2019-02-07T12:09:48.941Z,99.80
2019-02-07T12:12:35.598Z,99.80
2019-02-07T12:15:26.571Z,99.80
2019-02-07T12:18:18.020Z,99.80
2019-02-07T12:21:13.834Z,99.80
2019-02-07T12:24:14.391Z,99.80
2019-02-07T12:27:01.953Z,99.80
2019-02-07T12:29:48.822Z,99.80
2019-02-07T12:32:43.132Z,99.80
2019-02-07T12:35:34.576Z,99.80
2019-02-07T12:38:29.828Z,99.80
2019-02-07T12:41:27.253Z,99.80
2019-02-07T12:44:13.770Z,99.80
2019-02-07T12:47:10.585Z,99.80
2019-02-07T12:50:11.257Z,99.80
2019-02-07T12:53:11.775Z,99.80
2019-02-07T12:55:58.799Z,99.80
2019-02-07T12:58:46.309Z,99.80
2019-02-07T13:01:46.643Z,99.80
2019-02-07T13:04:44.714Z,99.80
2019-02-07T13:07:32.474Z,99.80
2019-02-07T13:10:32.736Z,99.80
2019-02-07T13:13:32.273Z,99.80
2019-02-07T13:20:34.796Z,99.80
2019-02-07T13:23:36.070Z,99.80
2019-02-07T13:26:31.256Z,99.80
2019-02-07T13:29:33.024Z,99.80
2019-02-07T13:32:21.148Z,99.80
2019-02-07T13:35:17.925Z,99.80
2019-02-07T13:38:49.161Z,99.80
2019-02-07T13:41:53.222Z,99.80
2019-02-07T13:44:50.007Z,99.80
2019-02-07T13:47:58.388Z,99.80
2019-02-07T13:50:44.289Z,99.80
2019-02-07T13:53:54.583Z,99.80
2019-02-07T13:56:51.940Z,99.80
2019-02-07T13:59:40.937Z,99.80
2019-02-07T14:02:20.356Z,99.80
2019-02-07T14:05:14.958Z,99.80
2019-02-07T14:08:37.588Z,99.80
2019-02-07T14:11:16.784Z,99.80
2019-02-07T14:14:21.291Z,99.80
2019-02-07T14:20:34.033Z,99.80
2019-02-07T14:24:32.235Z,99.80
2019-02-07T14:27:38.672Z,99.80
2019-02-07T14:30:57.139Z,99.80
2019-02-07T14:33:44.086Z,99.80
2019-02-07T14:37:07.739Z,99.80
2019-02-07T14:40:56.952Z,99.80
2019-02-07T14:46:56.168Z,99.80
2019-02-07T15:04:47.496Z,99.80
2019-02-07T15:08:05.480Z,99.80
2019-02-07T15:28:04.474Z,99.80
2019-02-07T15:32:58.757Z,99.80
2019-02-07T16:21:51.186Z,99.80
2019-02-07T16:24:20.497Z,99.80
2019-02-07T16:26:55.670Z,99.80
2019-02-07T16:29:33.475Z,99.80
2019-02-07T16:43:20.081Z,99.80
2019-02-07T16:46:40.542Z,99.80
2019-02-07T16:49:10.192Z,99.80
2019-02-07T16:51:39.802Z,99.80
2019-02-07T16:54:09.468Z,99.80
2019-02-07T16:56:38.791Z,99.80
2019-02-07T16:59:08.055Z,99.80
2019-02-07T17:01:37.597Z,99.80
2019-02-07T17:04:07.541Z,99.80
2019-02-07T17:06:37.221Z,99.80
2019-02-07T17:09:19.051Z,99.80
2019-02-07T17:11:48.370Z,99.80
2019-02-07T17:14:18.502Z,99.80
2019-02-07T17:16:48.118Z,99.80
2019-02-07T17:19:17.373Z,99.80
2019-02-07T17:21:46.626Z,99.80
2019-02-07T17:24:15.929Z,99.80
2019-02-07T17:26:45.270Z,99.80
2019-02-07T17:29:14.493Z,99.80
2019-02-07T17:31:43.966Z,99.80
2019-02-07T17:34:13.120Z,99.80
2019-02-07T17:36:42.880Z,99.80
2019-02-07T17:39:12.140Z,99.80
2019-02-07T17:41:41.525Z,99.80
2019-02-07T17:44:10.775Z,99.80
2019-02-07T17:46:40.414Z,99.80
2019-02-07T17:49:10.501Z,99.80
2019-02-07T17:51:39.964Z,99.80
2019-02-07T17:54:18.555Z,99.80
2019-02-07T17:56:40.452Z,99.80
2019-02-07T17:59:09.832Z,99.80
2019-02-07T18:01:39.355Z,99.80
2019-02-07T18:04:09.039Z,99.80
2019-02-07T18:06:38.437Z,99.80
2019-02-07T18:09:09.832Z,99.80
2019-02-07T18:11:39.472Z,99.80
2019-02-07T18:14:08.730Z,99.80
2019-02-07T18:16:38.337Z,99.80
2019-02-07T18:19:07.533Z,99.80
2019-02-07T18:21:37.168Z,99.80
2019-02-07T18:24:07.116Z,99.80
2019-02-07T18:26:36.429Z,99.80
2019-02-07T18:29:05.875Z,99.80
2019-02-07T18:31:35.394Z,99.80
2019-02-07T18:34:05.372Z,99.80
2019-02-07T18:36:34.711Z,99.80
2019-02-07T18:39:06.920Z,99.80
2019-02-07T18:41:36.201Z,99.80
2019-02-07T18:44:05.848Z,99.80
2019-02-07T18:49:40.643Z,99.80
2019-02-07T18:52:30.362Z,99.80
2019-02-07T18:55:00.329Z,99.80
2019-02-07T18:57:29.624Z,99.80
2019-02-07T19:00:00.916Z,99.80
2019-02-07T19:02:30.010Z,99.80
2019-02-07T19:04:59.622Z,99.80
2019-02-07T19:07:33.517Z,99.80
2019-02-07T19:10:02.843Z,99.80
2019-02-07T19:12:32.531Z,99.80
2019-02-07T19:15:01.868Z,99.80
2019-02-07T19:17:31.164Z,99.80
2019-02-07T19:20:00.602Z,99.80
2019-02-07T19:22:29.973Z,99.80
2019-02-07T19:24:59.285Z,99.80
2019-02-07T19:27:28.891Z,99.80
2019-02-07T19:29:58.737Z,99.80
2019-02-07T19:32:28.120Z,99.80
2019-02-07T19:34:57.419Z,99.80
2019-02-07T19:37:26.911Z,99.80
2019-02-07T19:39:56.530Z,99.80
2019-02-07T19:42:26.371Z,99.80
2019-02-07T19:44:56.108Z,99.80
2019-02-07T19:47:26.044Z,99.80
2019-02-07T19:49:55.696Z,99.80
2019-02-07T19:52:25.416Z,99.80
2019-02-07T19:54:55.758Z,99.80
2019-02-07T19:57:25.526Z,99.80
2019-02-07T19:59:54.945Z,99.80
2019-02-07T20:02:24.198Z,99.80
2019-02-07T20:04:53.725Z,99.80
2019-02-07T20:07:23.035Z,99.80
2019-02-07T20:09:52.475Z,99.80
2019-02-07T20:12:21.874Z,99.80
2019-02-07T20:14:51.255Z,99.80
2019-02-07T20:17:20.555Z,99.80
2019-02-07T20:19:50.549Z,99.80
2019-02-07T20:22:20.594Z,99.80
2019-02-07T20:24:50.345Z,99.80
2019-02-07T20:27:20.199Z,99.80
2019-02-07T20:29:49.876Z,99.80
2019-02-07T20:32:19.515Z,99.80
2019-02-07T20:34:48.895Z,99.80
2019-02-07T20:37:18.889Z,99.80
2019-02-07T20:39:48.128Z,99.80
2019-02-07T20:42:17.710Z,99.80
2019-02-07T20:44:46.961Z,99.80
2019-02-07T20:47:16.339Z,99.80
2019-02-07T20:49:46.552Z,99.80
2019-02-07T20:52:15.877Z,99.80
2019-02-07T20:54:45.219Z,99.80
2019-02-07T20:57:14.532Z,99.80
2019-02-07T20:59:44.186Z,99.80
2019-02-07T21:02:13.479Z,99.80
2019-02-07T21:04:42.685Z,99.80
2019-02-07T21:07:11.979Z,99.80
2019-02-07T21:09:41.983Z,99.80
2019-02-07T21:12:11.322Z,99.80
2019-02-07T21:14:41.028Z,99.80
2019-02-07T21:17:10.611Z,99.80
2019-02-07T21:19:40.238Z,99.80
2019-02-07T21:22:09.520Z,99.80
2019-02-07T21:24:39.523Z,99.80
2019-02-07T21:27:08.776Z,99.80
2019-02-07T21:29:38.360Z,99.80
2019-02-07T21:32:07.636Z,99.80
2019-02-07T21:34:36.966Z,99.80
2019-02-07T21:37:06.604Z,99.80
2019-02-07T21:39:35.957Z,99.80
2019-02-07T21:42:05.531Z,99.80
2019-02-07T21:44:34.851Z,99.80
2019-02-07T21:47:04.527Z,99.80
2019-02-07T21:49:34.284Z,99.80
2019-02-07T21:52:03.610Z,99.80
2019-02-07T21:54:33.184Z,99.80
2019-02-07T21:57:02.495Z,99.80
2019-02-07T21:59:31.892Z,99.80
2019-02-07T22:02:01.129Z,99.80
2019-02-07T22:04:30.504Z,99.80
2019-02-07T22:06:59.814Z,99.80
2019-02-07T22:09:29.773Z,99.80
2019-02-07T22:12:03.426Z,99.80
2019-02-07T22:14:33.043Z,99.80
2019-02-07T22:17:02.587Z,99.80
2019-02-07T22:19:31.891Z,99.80
2019-02-07T22:22:01.219Z,99.80
2019-02-07T22:24:30.969Z,99.80
2019-02-07T22:27:00.797Z,99.80
2019-02-07T22:29:30.314Z,99.80
2019-02-07T22:31:59.976Z,99.80
2019-02-07T22:34:29.567Z,99.80
2019-02-07T22:36:58.882Z,99.80
2019-02-07T22:39:28.509Z,99.80
2019-02-07T22:41:58.115Z,99.80
2019-02-07T22:44:27.879Z,99.80
2019-02-07T22:46:57.440Z,99.80
2019-02-07T22:49:26.696Z,99.80
2019-02-07T22:51:55.984Z,99.80
2019-02-07T22:54:25.287Z,99.80
2019-02-07T22:56:54.699Z,99.80
2019-02-07T22:59:23.992Z,99.80
2019-02-07T23:01:55.599Z,99.80
2019-02-07T23:04:26.240Z,99.80
2019-02-07T23:06:55.567Z,99.80
2019-02-07T23:09:25.524Z,99.80
2019-02-07T23:11:55.445Z,99.80
2019-02-07T23:14:28.270Z,99.80
2019-02-07T23:16:58.648Z,99.80
2019-02-07T23:19:37.757Z,99.80
2019-02-07T23:22:12.774Z,99.80
2019-02-07T23:24:43.983Z,99.80
2019-02-07T23:27:37.720Z,99.80
2019-02-07T23:30:11.811Z,99.80
2019-02-07T23:32:43.898Z,99.80
2019-02-07T23:35:20.464Z,99.80
2019-02-07T23:37:50.100Z,99.80
2019-02-07T23:40:23.124Z,99.80
2019-02-07T23:42:54.167Z,99.80
2019-02-07T23:45:25.891Z,99.80
2019-02-07T23:48:00.844Z,99.80
2019-02-07T23:50:33.001Z,99.80
2019-02-07T23:53:02.234Z,99.80
2019-02-07T23:55:31.473Z,99.80
2019-02-07T23:58:01.174Z,99.80
